sensor_id;sensor_type;location;lat;lon;timestamp;temperature;humidity
19805;DHT22;10062;51.052;13.756;2023-11-18T00:00:33;5.80;1.00
19805;DHT22;10062;51.052;13.756;2023-11-18T00:03:05;5.80;1.00
19805;DHT22;10062;51.052;13.756;2023-11-18T00:05:37;5.80;1.00
19805;DHT22;10062;51.052;13.756;2023-11-18T00:08:08;5.80;1.00
19805;DHT22;10062;51.052;13.756;2023-11-18T00:10:40;5.80;1.00
19805;DHT22;10062;51.052;13.756;2023-11-18T00:13:12;5.80;1.00
19805;DHT22;10062;51.052;13.756;2023-11-18T00:15:45;5.70;1.00
19805;DHT22;10062;51.052;13.756;2023-11-18T00:18:18;5.70;1.00
19805;DHT22;10062;51.052;13.756;2023-11-18T00:20:50;5.70;1.00
19805;DHT22;10062;51.052;13.756;2023-11-18T00:23:22;5.70;1.00
19805;DHT22;10062;51.052;13.756;2023-11-18T00:25:53;5.70;1.00
19805;DHT22;10062;51.052;13.756;2023-11-18T00:28:25;5.70;1.00
19805;DHT22;10062;51.052;13.756;2023-11-18T00:30:59;5.60;1.00
19805;DHT22;10062;51.052;13.756;2023-11-18T00:33:32;5.60;1.00
19805;DHT22;10062;51.052;13.756;2023-11-18T00:36:04;5.60;1.00
19805;DHT22;10062;51.052;13.756;2023-11-18T00:38:37;5.60;1.00
19805;DHT22;10062;51.052;13.756;2023-11-18T00:41:10;5.50;1.00
19805;DHT22;10062;51.052;13.756;2023-11-18T00:43:43;5.50;1.00
19805;DHT22;10062;51.052;13.756;2023-11-18T00:46:16;5.40;1.00
19805;DHT22;10062;51.052;13.756;2023-11-18T00:48:48;5.50;1.00
19805;DHT22;10062;51.052;13.756;2023-11-18T00:51:20;5.40;1.00
19805;DHT22;10062;51.052;13.756;2023-11-18T00:53:52;5.40;1.00
19805;DHT22;10062;51.052;13.756;2023-11-18T00:56:24;5.40;1.00
19805;DHT22;10062;51.052;13.756;2023-11-18T00:58:56;5.40;1.00
19805;DHT22;10062;51.052;13.756;2023-11-18T01:01:29;5.40;1.00
19805;DHT22;10062;51.052;13.756;2023-11-18T01:04:02;5.50;1.00
19805;DHT22;10062;51.052;13.756;2023-11-18T01:06:36;5.50;1.00
19805;DHT22;10062;51.052;13.756;2023-11-18T01:09:07;5.40;1.00
19805;DHT22;10062;51.052;13.756;2023-11-18T01:11:40;5.30;1.00
19805;DHT22;10062;51.052;13.756;2023-11-18T01:14:11;5.30;1.00
19805;DHT22;10062;51.052;13.756;2023-11-18T01:16:44;5.30;1.00
19805;DHT22;10062;51.052;13.756;2023-11-18T01:19:17;5.20;1.00
19805;DHT22;10062;51.052;13.756;2023-11-18T01:21:49;5.20;1.00
19805;DHT22;10062;51.052;13.756;2023-11-18T01:24:23;5.20;1.00
19805;DHT22;10062;51.052;13.756;2023-11-18T01:26:55;5.30;1.00
19805;DHT22;10062;51.052;13.756;2023-11-18T01:29:27;5.30;1.00
19805;DHT22;10062;51.052;13.756;2023-11-18T01:32:00;5.30;1.00
19805;DHT22;10062;51.052;13.756;2023-11-18T01:34:39;5.30;1.00
19805;DHT22;10062;51.052;13.756;2023-11-18T01:37:11;5.40;1.00
19805;DHT22;10062;51.052;13.756;2023-11-18T01:39:44;5.50;1.00
19805;DHT22;10062;51.052;13.756;2023-11-18T01:42:16;5.40;1.00
19805;DHT22;10062;51.052;13.756;2023-11-18T01:44:48;5.40;1.00
19805;DHT22;10062;51.052;13.756;2023-11-18T01:47:21;5.30;1.00
19805;DHT22;10062;51.052;13.756;2023-11-18T01:49:54;5.30;1.00
19805;DHT22;10062;51.052;13.756;2023-11-18T01:52:27;5.30;1.00
19805;DHT22;10062;51.052;13.756;2023-11-18T01:55:01;5.30;1.00
19805;DHT22;10062;51.052;13.756;2023-11-18T01:57:35;5.30;1.00
19805;DHT22;10062;51.052;13.756;2023-11-18T02:00:08;5.30;1.00
19805;DHT22;10062;51.052;13.756;2023-11-18T02:02:47;5.40;1.00
19805;DHT22;10062;51.052;13.756;2023-11-18T02:05:19;5.50;1.00
19805;DHT22;10062;51.052;13.756;2023-11-18T02:07:52;5.50;1.00
19805;DHT22;10062;51.052;13.756;2023-11-18T02:10:24;5.50;1.00
19805;DHT22;10062;51.052;13.756;2023-11-18T02:13:06;5.50;1.00
19805;DHT22;10062;51.052;13.756;2023-11-18T02:15:41;5.50;1.00
19805;DHT22;10062;51.052;13.756;2023-11-18T02:18:15;5.40;1.00
19805;DHT22;10062;51.052;13.756;2023-11-18T02:20:49;5.40;1.00
19805;DHT22;10062;51.052;13.756;2023-11-18T02:23:22;5.30;1.00
19805;DHT22;10062;51.052;13.756;2023-11-18T02:25:55;5.30;1.00
19805;DHT22;10062;51.052;13.756;2023-11-18T02:28:27;5.50;1.00
19805;DHT22;10062;51.052;13.756;2023-11-18T02:31:03;5.50;1.00
19805;DHT22;10062;51.052;13.756;2023-11-18T02:33:42;5.40;1.00
19805;DHT22;10062;51.052;13.756;2023-11-18T02:36:23;5.30;1.00
19805;DHT22;10062;51.052;13.756;2023-11-18T02:38:55;5.30;1.00
19805;DHT22;10062;51.052;13.756;2023-11-18T02:41:30;5.30;1.00
19805;DHT22;10062;51.052;13.756;2023-11-18T02:44:02;5.30;1.00
19805;DHT22;10062;51.052;13.756;2023-11-18T02:46:39;5.70;1.00
19805;DHT22;10062;51.052;13.756;2023-11-18T02:49:14;5.30;1.00
19805;DHT22;10062;51.052;13.756;2023-11-18T02:51:48;5.40;1.00
19805;DHT22;10062;51.052;13.756;2023-11-18T02:54:19;5.40;1.00
19805;DHT22;10062;51.052;13.756;2023-11-18T02:56:53;5.30;1.00
19805;DHT22;10062;51.052;13.756;2023-11-18T02:59:26;5.20;1.00
19805;DHT22;10062;51.052;13.756;2023-11-18T03:02:00;5.20;1.00
19805;DHT22;10062;51.052;13.756;2023-11-18T03:04:32;5.10;1.00
19805;DHT22;10062;51.052;13.756;2023-11-18T03:07:05;5.10;1.00
19805;DHT22;10062;51.052;13.756;2023-11-18T03:09:38;4.90;1.00
19805;DHT22;10062;51.052;13.756;2023-11-18T03:12:12;4.90;1.00
19805;DHT22;10062;51.052;13.756;2023-11-18T03:14:43;4.80;1.00
19805;DHT22;10062;51.052;13.756;2023-11-18T03:17:15;4.90;1.00
19805;DHT22;10062;51.052;13.756;2023-11-18T03:19:47;4.90;1.00
19805;DHT22;10062;51.052;13.756;2023-11-18T03:22:21;4.80;1.00
19805;DHT22;10062;51.052;13.756;2023-11-18T03:24:53;4.70;1.00
19805;DHT22;10062;51.052;13.756;2023-11-18T03:27:26;4.70;1.00
19805;DHT22;10062;51.052;13.756;2023-11-18T03:29:58;4.70;1.00
19805;DHT22;10062;51.052;13.756;2023-11-18T03:32:30;4.70;1.00
19805;DHT22;10062;51.052;13.756;2023-11-18T03:35:02;4.80;1.00
19805;DHT22;10062;51.052;13.756;2023-11-18T03:37:35;4.80;1.00
19805;DHT22;10062;51.052;13.756;2023-11-18T03:40:10;4.80;1.00
19805;DHT22;10062;51.052;13.756;2023-11-18T03:42:44;4.90;1.00
19805;DHT22;10062;51.052;13.756;2023-11-18T03:45:16;4.90;1.00
19805;DHT22;10062;51.052;13.756;2023-11-18T03:47:48;4.80;1.00
19805;DHT22;10062;51.052;13.756;2023-11-18T03:50:21;4.80;1.00
19805;DHT22;10062;51.052;13.756;2023-11-18T03:52:53;4.80;1.00
19805;DHT22;10062;51.052;13.756;2023-11-18T03:55:25;4.80;1.00
19805;DHT22;10062;51.052;13.756;2023-11-18T03:57:58;4.80;1.00
19805;DHT22;10062;51.052;13.756;2023-11-18T04:00:30;4.80;1.00
19805;DHT22;10062;51.052;13.756;2023-11-18T04:03:03;4.90;1.00
19805;DHT22;10062;51.052;13.756;2023-11-18T04:05:37;4.90;1.00
19805;DHT22;10062;51.052;13.756;2023-11-18T04:08:09;4.90;1.00
19805;DHT22;10062;51.052;13.756;2023-11-18T04:10:43;4.90;1.00
19805;DHT22;10062;51.052;13.756;2023-11-18T04:13:16;4.90;1.00
19805;DHT22;10062;51.052;13.756;2023-11-18T04:15:48;5.00;1.00
19805;DHT22;10062;51.052;13.756;2023-11-18T04:18:20;4.90;1.00
19805;DHT22;10062;51.052;13.756;2023-11-18T04:20:53;4.80;1.00
19805;DHT22;10062;51.052;13.756;2023-11-18T04:23:25;4.80;1.00
19805;DHT22;10062;51.052;13.756;2023-11-18T04:25:57;4.80;1.00
19805;DHT22;10062;51.052;13.756;2023-11-18T04:28:30;4.70;1.00
19805;DHT22;10062;51.052;13.756;2023-11-18T04:31:03;4.70;1.00
19805;DHT22;10062;51.052;13.756;2023-11-18T04:33:35;4.80;1.00
19805;DHT22;10062;51.052;13.756;2023-11-18T04:36:07;4.90;1.00
19805;DHT22;10062;51.052;13.756;2023-11-18T04:38:41;4.90;1.00
19805;DHT22;10062;51.052;13.756;2023-11-18T04:41:13;4.90;1.00
19805;DHT22;10062;51.052;13.756;2023-11-18T04:43:46;4.80;1.00
19805;DHT22;10062;51.052;13.756;2023-11-18T04:46:18;4.80;1.00
19805;DHT22;10062;51.052;13.756;2023-11-18T04:48:50;4.80;1.00
19805;DHT22;10062;51.052;13.756;2023-11-18T04:51:23;4.90;1.00
19805;DHT22;10062;51.052;13.756;2023-11-18T04:53:57;4.90;1.00
19805;DHT22;10062;51.052;13.756;2023-11-18T04:56:28;5.00;1.00
19805;DHT22;10062;51.052;13.756;2023-11-18T04:59:02;5.10;1.00
19805;DHT22;10062;51.052;13.756;2023-11-18T05:01:35;5.10;1.00
19805;DHT22;10062;51.052;13.756;2023-11-18T05:04:07;5.10;1.00
19805;DHT22;10062;51.052;13.756;2023-11-18T05:06:40;5.10;1.00
19805;DHT22;10062;51.052;13.756;2023-11-18T05:09:11;5.00;1.00
19805;DHT22;10062;51.052;13.756;2023-11-18T05:11:43;5.10;1.00
19805;DHT22;10062;51.052;13.756;2023-11-18T05:14:16;5.10;1.00
19805;DHT22;10062;51.052;13.756;2023-11-18T05:16:48;5.10;1.00
19805;DHT22;10062;51.052;13.756;2023-11-18T05:19:20;5.10;1.00
19805;DHT22;10062;51.052;13.756;2023-11-18T05:21:52;5.00;1.00
19805;DHT22;10062;51.052;13.756;2023-11-18T05:24:24;5.10;1.00
19805;DHT22;10062;51.052;13.756;2023-11-18T05:26:56;5.10;1.00
19805;DHT22;10062;51.052;13.756;2023-11-18T05:29:29;5.10;1.00
19805;DHT22;10062;51.052;13.756;2023-11-18T05:32:01;5.10;1.00
19805;DHT22;10062;51.052;13.756;2023-11-18T05:34:32;5.00;1.00
19805;DHT22;10062;51.052;13.756;2023-11-18T05:37:05;5.10;1.00
19805;DHT22;10062;51.052;13.756;2023-11-18T05:39:38;5.20;1.00
19805;DHT22;10062;51.052;13.756;2023-11-18T05:42:14;5.20;1.00
19805;DHT22;10062;51.052;13.756;2023-11-18T05:44:47;5.30;1.00
19805;DHT22;10062;51.052;13.756;2023-11-18T05:47:19;5.30;1.00
19805;DHT22;10062;51.052;13.756;2023-11-18T05:49:51;5.20;1.00
19805;DHT22;10062;51.052;13.756;2023-11-18T05:52:23;5.20;1.00
19805;DHT22;10062;51.052;13.756;2023-11-18T05:54:55;5.20;1.00
19805;DHT22;10062;51.052;13.756;2023-11-18T05:57:27;5.10;1.00
19805;DHT22;10062;51.052;13.756;2023-11-18T06:00:00;5.10;1.00
19805;DHT22;10062;51.052;13.756;2023-11-18T06:02:31;5.10;1.00
19805;DHT22;10062;51.052;13.756;2023-11-18T06:05:05;5.00;1.00
19805;DHT22;10062;51.052;13.756;2023-11-18T06:07:37;5.00;1.00
19805;DHT22;10062;51.052;13.756;2023-11-18T06:10:10;5.00;1.00
19805;DHT22;10062;51.052;13.756;2023-11-18T06:12:42;5.00;1.00
19805;DHT22;10062;51.052;13.756;2023-11-18T06:15:16;5.20;1.00
19805;DHT22;10062;51.052;13.756;2023-11-18T06:17:49;5.00;1.00
19805;DHT22;10062;51.052;13.756;2023-11-18T06:20:21;5.00;1.00
19805;DHT22;10062;51.052;13.756;2023-11-18T06:22:54;5.00;1.00
19805;DHT22;10062;51.052;13.756;2023-11-18T06:25:27;5.00;1.00
19805;DHT22;10062;51.052;13.756;2023-11-18T06:28:00;5.00;1.00
19805;DHT22;10062;51.052;13.756;2023-11-18T06:30:34;5.10;1.00
19805;DHT22;10062;51.052;13.756;2023-11-18T06:33:06;5.00;1.00
19805;DHT22;10062;51.052;13.756;2023-11-18T06:35:38;5.10;1.00
19805;DHT22;10062;51.052;13.756;2023-11-18T06:38:10;5.10;1.00
19805;DHT22;10062;51.052;13.756;2023-11-18T06:40:43;5.10;1.00
19805;DHT22;10062;51.052;13.756;2023-11-18T06:43:16;5.00;1.00
19805;DHT22;10062;51.052;13.756;2023-11-18T06:45:50;5.00;1.00
19805;DHT22;10062;51.052;13.756;2023-11-18T06:48:22;5.00;1.00
19805;DHT22;10062;51.052;13.756;2023-11-18T06:50:54;5.00;1.00
19805;DHT22;10062;51.052;13.756;2023-11-18T06:53:26;5.00;1.00
19805;DHT22;10062;51.052;13.756;2023-11-18T06:55:58;5.00;1.00
19805;DHT22;10062;51.052;13.756;2023-11-18T06:58:30;5.00;1.00
19805;DHT22;10062;51.052;13.756;2023-11-18T07:01:04;5.10;1.00
19805;DHT22;10062;51.052;13.756;2023-11-18T07:03:36;5.10;1.00
19805;DHT22;10062;51.052;13.756;2023-11-18T07:06:21;5.00;1.00
19805;DHT22;10062;51.052;13.756;2023-11-18T07:08:54;5.20;1.00
19805;DHT22;10062;51.052;13.756;2023-11-18T07:11:31;5.20;1.00
19805;DHT22;10062;51.052;13.756;2023-11-18T07:14:03;5.20;1.00
19805;DHT22;10062;51.052;13.756;2023-11-18T07:16:37;5.30;1.00
19805;DHT22;10062;51.052;13.756;2023-11-18T07:19:09;5.40;1.00
19805;DHT22;10062;51.052;13.756;2023-11-18T07:21:48;5.30;1.00
19805;DHT22;10062;51.052;13.756;2023-11-18T07:24:20;5.30;1.00
19805;DHT22;10062;51.052;13.756;2023-11-18T07:26:53;5.40;1.00
19805;DHT22;10062;51.052;13.756;2023-11-18T07:29:25;5.40;1.00
19805;DHT22;10062;51.052;13.756;2023-11-18T07:31:59;5.30;1.00
19805;DHT22;10062;51.052;13.756;2023-11-18T07:34:32;5.30;1.00
19805;DHT22;10062;51.052;13.756;2023-11-18T07:37:04;5.30;1.00
19805;DHT22;10062;51.052;13.756;2023-11-18T07:39:36;5.20;1.00
19805;DHT22;10062;51.052;13.756;2023-11-18T07:42:15;5.20;1.00
19805;DHT22;10062;51.052;13.756;2023-11-18T07:44:48;5.20;1.00
19805;DHT22;10062;51.052;13.756;2023-11-18T07:47:21;5.20;1.00
19805;DHT22;10062;51.052;13.756;2023-11-18T07:49:53;5.20;1.00
19805;DHT22;10062;51.052;13.756;2023-11-18T07:52:25;4.10;1.00
19805;DHT22;10062;51.052;13.756;2023-11-18T07:54:58;5.30;1.00
19805;DHT22;10062;51.052;13.756;2023-11-18T07:57:30;5.20;1.00
19805;DHT22;10062;51.052;13.756;2023-11-18T08:00:07;5.20;1.00
19805;DHT22;10062;51.052;13.756;2023-11-18T08:02:47;5.30;1.00
19805;DHT22;10062;51.052;13.756;2023-11-18T08:05:19;5.30;1.00
19805;DHT22;10062;51.052;13.756;2023-11-18T08:07:53;5.30;1.00
19805;DHT22;10062;51.052;13.756;2023-11-18T08:10:25;5.30;1.00
19805;DHT22;10062;51.052;13.756;2023-11-18T08:12:59;5.40;1.00
19805;DHT22;10062;51.052;13.756;2023-11-18T08:15:32;5.40;1.00
19805;DHT22;10062;51.052;13.756;2023-11-18T08:18:05;5.40;1.00
19805;DHT22;10062;51.052;13.756;2023-11-18T08:20:37;5.40;1.00
19805;DHT22;10062;51.052;13.756;2023-11-18T08:23:10;5.40;1.00
19805;DHT22;10062;51.052;13.756;2023-11-18T08:25:42;5.50;1.00
19805;DHT22;10062;51.052;13.756;2023-11-18T08:28:14;5.50;1.00
19805;DHT22;10062;51.052;13.756;2023-11-18T08:30:46;5.60;1.00
19805;DHT22;10062;51.052;13.756;2023-11-18T08:33:21;5.70;1.00
19805;DHT22;10062;51.052;13.756;2023-11-18T08:35:54;5.70;1.00
19805;DHT22;10062;51.052;13.756;2023-11-18T08:38:27;5.80;1.00
19805;DHT22;10062;51.052;13.756;2023-11-18T08:41:00;5.90;1.00
19805;DHT22;10062;51.052;13.756;2023-11-18T08:43:32;5.90;1.00
19805;DHT22;10062;51.052;13.756;2023-11-18T08:46:04;5.90;1.00
19805;DHT22;10062;51.052;13.756;2023-11-18T08:48:39;5.90;1.00
19805;DHT22;10062;51.052;13.756;2023-11-18T08:51:11;5.90;1.00
19805;DHT22;10062;51.052;13.756;2023-11-18T08:53:44;6.00;1.00
19805;DHT22;10062;51.052;13.756;2023-11-18T08:56:16;6.00;1.00
19805;DHT22;10062;51.052;13.756;2023-11-18T08:58:50;6.10;1.00
19805;DHT22;10062;51.052;13.756;2023-11-18T09:01:22;6.20;1.00
19805;DHT22;10062;51.052;13.756;2023-11-18T09:04:00;6.30;1.00
19805;DHT22;10062;51.052;13.756;2023-11-18T09:06:32;6.30;1.00
19805;DHT22;10062;51.052;13.756;2023-11-18T09:09:04;6.30;1.00
19805;DHT22;10062;51.052;13.756;2023-11-18T09:11:40;6.40;1.00
19805;DHT22;10062;51.052;13.756;2023-11-18T09:14:13;6.50;1.00
19805;DHT22;10062;51.052;13.756;2023-11-18T09:16:45;6.60;1.00
19805;DHT22;10062;51.052;13.756;2023-11-18T09:19:18;6.60;1.00
19805;DHT22;10062;51.052;13.756;2023-11-18T09:21:52;6.70;1.00
19805;DHT22;10062;51.052;13.756;2023-11-18T09:24:25;6.70;1.00
19805;DHT22;10062;51.052;13.756;2023-11-18T09:26:57;6.80;1.00
19805;DHT22;10062;51.052;13.756;2023-11-18T09:29:29;6.80;1.00
19805;DHT22;10062;51.052;13.756;2023-11-18T09:32:03;6.90;1.00
19805;DHT22;10062;51.052;13.756;2023-11-18T09:34:40;6.90;1.00
19805;DHT22;10062;51.052;13.756;2023-11-18T09:37:12;7.10;1.00
19805;DHT22;10062;51.052;13.756;2023-11-18T09:39:43;7.10;1.00
19805;DHT22;10062;51.052;13.756;2023-11-18T09:42:16;7.00;1.00
19805;DHT22;10062;51.052;13.756;2023-11-18T09:44:50;7.10;1.00
19805;DHT22;10062;51.052;13.756;2023-11-18T09:47:23;6.60;1.00
19805;DHT22;10062;51.052;13.756;2023-11-18T09:50:01;7.00;99.90
19805;DHT22;10062;51.052;13.756;2023-11-18T09:52:35;7.30;1.00
19805;DHT22;10062;51.052;13.756;2023-11-18T09:55:18;7.20;99.90
19805;DHT22;10062;51.052;13.756;2023-11-18T09:58:01;7.30;99.90
19805;DHT22;10062;51.052;13.756;2023-11-18T10:00:40;7.30;99.90
19805;DHT22;10062;51.052;13.756;2023-11-18T10:03:13;7.70;99.90
19805;DHT22;10062;51.052;13.756;2023-11-18T10:05:47;7.50;1.00
19805;DHT22;10062;51.052;13.756;2023-11-18T10:08:20;7.60;99.90
19805;DHT22;10062;51.052;13.756;2023-11-18T10:10:56;7.70;1.00
19805;DHT22;10062;51.052;13.756;2023-11-18T10:13:35;7.70;1.00
19805;DHT22;10062;51.052;13.756;2023-11-18T10:16:11;7.90;99.90
19805;DHT22;10062;51.052;13.756;2023-11-18T10:18:42;8.10;99.90
19805;DHT22;10062;51.052;13.756;2023-11-18T10:21:34;8.10;99.90
19805;DHT22;10062;51.052;13.756;2023-11-18T10:24:10;8.20;1.00
19805;DHT22;10062;51.052;13.756;2023-11-18T10:26:45;8.10;98.20
19805;DHT22;10062;51.052;13.756;2023-11-18T10:29:18;8.10;1.00
19805;DHT22;10062;51.052;13.756;2023-11-18T10:31:50;8.20;1.00
19805;DHT22;10062;51.052;13.756;2023-11-18T10:34:34;8.30;1.00
19805;DHT22;10062;51.052;13.756;2023-11-18T10:37:08;8.20;1.00
19805;DHT22;10062;51.052;13.756;2023-11-18T10:39:41;8.40;1.00
19805;DHT22;10062;51.052;13.756;2023-11-18T10:42:17;8.60;1.00
19805;DHT22;10062;51.052;13.756;2023-11-18T10:44:55;8.80;99.90
19805;DHT22;10062;51.052;13.756;2023-11-18T10:47:28;9.00;99.90
19805;DHT22;10062;51.052;13.756;2023-11-18T10:50:00;8.90;99.90
19805;DHT22;10062;51.052;13.756;2023-11-18T10:52:34;9.00;99.90
19805;DHT22;10062;51.052;13.756;2023-11-18T10:55:11;9.10;1.00
19805;DHT22;10062;51.052;13.756;2023-11-18T10:57:42;9.00;1.00
19805;DHT22;10062;51.052;13.756;2023-11-18T11:00:14;9.00;1.00
19805;DHT22;10062;51.052;13.756;2023-11-18T11:02:57;8.80;1.00
19805;DHT22;10062;51.052;13.756;2023-11-18T11:05:29;8.90;99.90
19805;DHT22;10062;51.052;13.756;2023-11-18T11:08:04;9.00;99.90
19805;DHT22;10062;51.052;13.756;2023-11-18T11:10:37;8.90;1.00
19805;DHT22;10062;51.052;13.756;2023-11-18T11:13:13;8.80;1.00
19805;DHT22;10062;51.052;13.756;2023-11-18T11:15:48;8.60;99.90
19805;DHT22;10062;51.052;13.756;2023-11-18T11:18:27;8.60;99.90
19805;DHT22;10062;51.052;13.756;2023-11-18T11:21:07;8.60;1.00
19805;DHT22;10062;51.052;13.756;2023-11-18T11:23:52;8.70;1.00
19805;DHT22;10062;51.052;13.756;2023-11-18T11:26:33;8.70;1.00
19805;DHT22;10062;51.052;13.756;2023-11-18T11:29:23;8.60;1.00
19805;DHT22;10062;51.052;13.756;2023-11-18T11:32:06;8.40;99.90
19805;DHT22;10062;51.052;13.756;2023-11-18T11:34:49;8.30;1.00
19805;DHT22;10062;51.052;13.756;2023-11-18T11:37:25;8.30;1.00
19805;DHT22;10062;51.052;13.756;2023-11-18T11:39:58;8.50;1.00
19805;DHT22;10062;51.052;13.756;2023-11-18T11:42:31;8.20;99.90
19805;DHT22;10062;51.052;13.756;2023-11-18T11:45:05;8.30;99.90
19805;DHT22;10062;51.052;13.756;2023-11-18T11:47:50;8.30;1.00
19805;DHT22;10062;51.052;13.756;2023-11-18T11:50:27;8.20;99.90
19805;DHT22;10062;51.052;13.756;2023-11-18T11:53:07;8.10;1.00
19805;DHT22;10062;51.052;13.756;2023-11-18T11:55:47;8.10;1.00
19805;DHT22;10062;51.052;13.756;2023-11-18T11:58:29;8.20;36.50
19805;DHT22;10062;51.052;13.756;2023-11-18T12:01:01;8.30;1.00
19805;DHT22;10062;51.052;13.756;2023-11-18T12:03:40;8.40;1.00
19805;DHT22;10062;51.052;13.756;2023-11-18T12:06:17;8.30;1.00
19805;DHT22;10062;51.052;13.756;2023-11-18T12:08:54;8.30;1.00
19805;DHT22;10062;51.052;13.756;2023-11-18T12:11:32;8.30;1.00
19805;DHT22;10062;51.052;13.756;2023-11-18T12:14:06;8.30;1.00
19805;DHT22;10062;51.052;13.756;2023-11-18T12:16:58;8.40;1.00
19805;DHT22;10062;51.052;13.756;2023-11-18T12:19:32;8.40;1.00
19805;DHT22;10062;51.052;13.756;2023-11-18T12:22:07;9.00;1.00
19805;DHT22;10062;51.052;13.756;2023-11-18T12:28:11;8.20;39.00
19805;DHT22;10062;51.052;13.756;2023-11-18T12:30:46;8.20;78.40
19805;DHT22;10062;51.052;13.756;2023-11-18T12:34:01;8.20;99.90
19805;DHT22;10062;51.052;13.756;2023-11-18T12:37:04;8.00;1.00
19805;DHT22;10062;51.052;13.756;2023-11-18T12:40:14;8.00;1.00
19805;DHT22;10062;51.052;13.756;2023-11-18T12:43:01;7.90;1.00
19805;DHT22;10062;51.052;13.756;2023-11-18T12:45:48;7.80;1.00
19805;DHT22;10062;51.052;13.756;2023-11-18T12:48:27;10.30;1.00
19805;DHT22;10062;51.052;13.756;2023-11-18T12:51:04;10.70;1.00
19805;DHT22;10062;51.052;13.756;2023-11-18T12:53:40;7.80;99.90
19805;DHT22;10062;51.052;13.756;2023-11-18T12:56:12;7.80;99.90
19805;DHT22;10062;51.052;13.756;2023-11-18T12:58:45;7.90;99.90
19805;DHT22;10062;51.052;13.756;2023-11-18T13:01:19;7.90;99.90
19805;DHT22;10062;51.052;13.756;2023-11-18T13:03:50;7.90;1.00
19805;DHT22;10062;51.052;13.756;2023-11-18T13:06:24;8.00;1.00
19805;DHT22;10062;51.052;13.756;2023-11-18T13:08:59;8.10;99.90
19805;DHT22;10062;51.052;13.756;2023-11-18T13:11:36;8.10;99.90
19805;DHT22;10062;51.052;13.756;2023-11-18T13:14:09;8.10;99.90
19805;DHT22;10062;51.052;13.756;2023-11-18T13:16:43;8.10;1.00
19805;DHT22;10062;51.052;13.756;2023-11-18T13:19:23;8.10;1.00
19805;DHT22;10062;51.052;13.756;2023-11-18T13:21:57;8.10;1.00
19805;DHT22;10062;51.052;13.756;2023-11-18T13:24:29;8.10;1.00
19805;DHT22;10062;51.052;13.756;2023-11-18T13:27:02;8.00;99.90
19805;DHT22;10062;51.052;13.756;2023-11-18T13:29:36;7.90;99.90
19805;DHT22;10062;51.052;13.756;2023-11-18T13:32:11;7.90;1.00
19805;DHT22;10062;51.052;13.756;2023-11-18T13:34:43;7.90;99.90
19805;DHT22;10062;51.052;13.756;2023-11-18T13:37:15;7.80;1.00
19805;DHT22;10062;51.052;13.756;2023-11-18T13:39:55;7.80;99.90
19805;DHT22;10062;51.052;13.756;2023-11-18T13:42:28;7.90;1.00
19805;DHT22;10062;51.052;13.756;2023-11-18T13:45:03;7.90;1.00
19805;DHT22;10062;51.052;13.756;2023-11-18T13:47:40;7.80;1.00
19805;DHT22;10062;51.052;13.756;2023-11-18T13:50:13;7.80;99.90
19805;DHT22;10062;51.052;13.756;2023-11-18T13:52:45;7.70;99.90
19805;DHT22;10062;51.052;13.756;2023-11-18T13:55:17;7.70;99.90
19805;DHT22;10062;51.052;13.756;2023-11-18T13:57:56;7.70;1.00
19805;DHT22;10062;51.052;13.756;2023-11-18T14:00:28;7.60;1.00
19805;DHT22;10062;51.052;13.756;2023-11-18T14:03:03;7.60;1.00
19805;DHT22;10062;51.052;13.756;2023-11-18T14:05:37;7.60;1.00
19805;DHT22;10062;51.052;13.756;2023-11-18T14:08:09;7.60;1.00
19805;DHT22;10062;51.052;13.756;2023-11-18T14:10:43;7.70;1.00
19805;DHT22;10062;51.052;13.756;2023-11-18T14:13:15;7.60;99.90
19805;DHT22;10062;51.052;13.756;2023-11-18T14:15:47;7.70;99.90
19805;DHT22;10062;51.052;13.756;2023-11-18T14:18:27;7.60;99.90
19805;DHT22;10062;51.052;13.756;2023-11-18T14:20:59;7.50;1.00
19805;DHT22;10062;51.052;13.756;2023-11-18T14:23:31;7.40;1.00
19805;DHT22;10062;51.052;13.756;2023-11-18T14:26:03;7.30;99.90
19805;DHT22;10062;51.052;13.756;2023-11-18T14:28:37;7.30;1.00
19805;DHT22;10062;51.052;13.756;2023-11-18T14:31:08;7.40;1.00
19805;DHT22;10062;51.052;13.756;2023-11-18T14:33:42;7.40;1.00
19805;DHT22;10062;51.052;13.756;2023-11-18T14:36:14;7.40;1.00
19805;DHT22;10062;51.052;13.756;2023-11-18T14:38:46;7.30;1.00
19805;DHT22;10062;51.052;13.756;2023-11-18T14:41:18;7.30;1.00
19805;DHT22;10062;51.052;13.756;2023-11-18T14:43:50;7.20;1.00
19805;DHT22;10062;51.052;13.756;2023-11-18T14:46:22;7.10;99.90
19805;DHT22;10062;51.052;13.756;2023-11-18T14:48:55;7.00;1.00
19805;DHT22;10062;51.052;13.756;2023-11-18T14:51:27;7.10;1.00
19805;DHT22;10062;51.052;13.756;2023-11-18T14:53:59;7.10;99.90
19805;DHT22;10062;51.052;13.756;2023-11-18T14:56:30;7.00;1.00
19805;DHT22;10062;51.052;13.756;2023-11-18T14:59:02;7.00;1.00
19805;DHT22;10062;51.052;13.756;2023-11-18T15:01:35;7.00;1.00
19805;DHT22;10062;51.052;13.756;2023-11-18T15:04:08;6.80;1.00
19805;DHT22;10062;51.052;13.756;2023-11-18T15:06:41;6.80;99.90
19805;DHT22;10062;51.052;13.756;2023-11-18T15:09:12;6.70;1.00
19805;DHT22;10062;51.052;13.756;2023-11-18T15:11:45;6.70;1.00
19805;DHT22;10062;51.052;13.756;2023-11-18T15:14:16;6.60;1.00
19805;DHT22;10062;51.052;13.756;2023-11-18T15:16:48;6.60;99.90
19805;DHT22;10062;51.052;13.756;2023-11-18T15:19:21;6.50;99.90
19805;DHT22;10062;51.052;13.756;2023-11-18T15:21:53;6.50;1.00
19805;DHT22;10062;51.052;13.756;2023-11-18T15:24:25;6.40;83.70
19805;DHT22;10062;51.052;13.756;2023-11-18T15:26:56;6.30;1.00
19805;DHT22;10062;51.052;13.756;2023-11-18T15:29:30;6.40;99.90
19805;DHT22;10062;51.052;13.756;2023-11-18T15:32:08;6.40;99.90
19805;DHT22;10062;51.052;13.756;2023-11-18T15:34:42;6.30;1.00
19805;DHT22;10062;51.052;13.756;2023-11-18T15:37:14;6.10;13.00
19805;DHT22;10062;51.052;13.756;2023-11-18T15:39:45;6.00;99.90
19805;DHT22;10062;51.052;13.756;2023-11-18T15:42:18;6.00;97.60
19805;DHT22;10062;51.052;13.756;2023-11-18T15:44:49;6.00;1.00
19805;DHT22;10062;51.052;13.756;2023-11-18T15:47:24;5.90;1.00
19805;DHT22;10062;51.052;13.756;2023-11-18T15:49:57;5.80;1.00
19805;DHT22;10062;51.052;13.756;2023-11-18T15:52:29;5.70;99.90
19805;DHT22;10062;51.052;13.756;2023-11-18T15:55:02;5.60;1.00
19805;DHT22;10062;51.052;13.756;2023-11-18T15:57:40;5.60;1.00
19805;DHT22;10062;51.052;13.756;2023-11-18T16:00:12;5.60;99.90
19805;DHT22;10062;51.052;13.756;2023-11-18T16:02:47;5.60;1.00
19805;DHT22;10062;51.052;13.756;2023-11-18T16:05:21;5.60;1.00
19805;DHT22;10062;51.052;13.756;2023-11-18T16:07:54;5.60;1.00
19805;DHT22;10062;51.052;13.756;2023-11-18T16:10:27;5.60;99.90
19805;DHT22;10062;51.052;13.756;2023-11-18T16:13:00;5.60;15.40
19805;DHT22;10062;51.052;13.756;2023-11-18T16:15:33;5.50;99.90
19805;DHT22;10062;51.052;13.756;2023-11-18T16:18:06;5.50;1.00
19805;DHT22;10062;51.052;13.756;2023-11-18T16:20:40;5.50;99.90
19805;DHT22;10062;51.052;13.756;2023-11-18T16:23:12;5.40;1.00
19805;DHT22;10062;51.052;13.756;2023-11-18T16:25:44;5.40;1.00
19805;DHT22;10062;51.052;13.756;2023-11-18T16:28:17;5.40;99.90